createdAt,value
2018-11-01T00:02:44.736Z,1.40
2018-11-01T00:05:14.725Z,1.60
2018-11-01T00:07:43.905Z,1.70
2018-11-01T01:02:37.410Z,1.50
2018-11-01T01:05:07.136Z,1.60
2018-11-01T01:07:36.005Z,1.80
2018-11-01T01:10:05.193Z,1.90
2018-11-01T02:02:37.842Z,1.20
2018-11-01T02:05:07.298Z,1.30
2018-11-01T02:07:36.276Z,1.50
2018-11-01T02:10:05.885Z,1.70
2018-11-01T03:02:37.478Z,0.60
2018-11-01T03:05:06.382Z,0.60
2018-11-01T03:07:35.112Z,0.80
2018-11-01T03:10:04.937Z,1.00
2018-11-01T04:02:37.129Z,0.30
2018-11-01T04:05:05.889Z,0.50
2018-11-01T04:07:34.624Z,0.60
2018-11-01T04:10:03.471Z,0.90
2018-11-01T05:02:38.081Z,1.10
2018-11-01T05:05:06.829Z,1.10
2018-11-01T05:07:35.580Z,1.40
2018-11-01T05:10:04.646Z,1.50
2018-11-01T06:02:41.241Z,2.30
2018-11-01T06:05:10.370Z,2.50
2018-11-01T06:07:45.897Z,2.80
2018-11-01T07:03:22.623Z,5.80
2018-11-01T07:05:51.507Z,5.90
2018-11-01T07:08:20.366Z,6.10
2018-11-01T07:10:50.020Z,6.30
2018-11-01T08:02:39.645Z,7.70
2018-11-01T08:05:09.668Z,7.80
2018-11-01T08:07:38.409Z,8.00
2018-11-01T09:02:41.033Z,9.10
2018-11-01T09:05:10.937Z,9.20
2018-11-01T09:07:40.119Z,9.40
2018-11-01T10:02:37.480Z,10.60
2018-11-01T10:05:07.293Z,10.80
2018-11-01T10:07:36.562Z,11.00
2018-11-01T11:02:47.600Z,12.00
2018-11-01T11:05:17.365Z,12.00
2018-11-01T11:07:46.562Z,12.20
2018-11-01T12:02:42.804Z,13.30
2018-11-01T12:05:11.524Z,13.30
2018-11-01T12:07:40.280Z,13.40
2018-11-01T13:02:36.648Z,14.20
2018-11-01T13:05:05.549Z,14.20
2018-11-01T13:07:34.268Z,14.20
2018-11-01T13:10:03.036Z,14.40
2018-11-01T14:02:41.357Z,13.50
2018-11-01T14:05:11.868Z,13.50
2018-11-01T14:07:41.153Z,13.60
2018-11-01T15:02:38.876Z,12.50
2018-11-01T15:05:07.825Z,12.60
2018-11-01T15:07:36.552Z,12.80
2018-11-01T16:02:37.253Z,11.60
2018-11-01T16:05:06.260Z,11.70
2018-11-01T16:07:34.994Z,11.70
2018-11-01T16:10:04.108Z,11.80
2018-11-01T17:02:37.356Z,10.80
2018-11-01T17:05:07.229Z,10.80
2018-11-01T17:07:35.940Z,10.90
2018-11-01T17:10:05.239Z,11.10
2018-11-01T18:02:36.872Z,12.20
2018-11-01T18:05:06.345Z,12.40
2018-11-01T18:07:35.127Z,12.50
2018-11-01T18:10:03.890Z,12.70
2018-11-01T19:02:37.611Z,12.10
2018-11-01T19:05:06.896Z,12.10
2018-11-01T19:07:35.622Z,12.30
2018-11-01T23:02:44.772Z,12.10
2018-11-01T23:05:13.895Z,12.20
2018-11-01T23:07:42.709Z,12.20
